createdAt,value
2022-12-15T00:00:01.792Z,21.33
2022-12-15T00:02:47.346Z,20.50
2022-12-15T00:05:33.172Z,20.03
2022-12-15T00:08:26.929Z,19.47
2022-12-15T00:11:12.667Z,19.67
2022-12-15T00:14:00.094Z,19.80
2022-12-15T00:16:45.447Z,19.10
2022-12-15T00:19:30.813Z,19.63
2022-12-15T00:22:16.088Z,20.33
2022-12-15T00:25:03.095Z,20.47
2022-12-15T00:27:48.567Z,19.37
2022-12-15T00:30:34.134Z,19.70
2022-12-15T00:33:19.654Z,20.37
2022-12-15T00:36:05.085Z,20.87
2022-12-15T00:38:43.986Z,19.43
2022-12-15T00:41:15.328Z,19.00
2022-12-15T00:43:44.034Z,19.60
2022-12-15T00:46:29.332Z,19.20
2022-12-15T00:48:57.511Z,18.37
2022-12-15T00:51:43.371Z,18.43
2022-12-15T00:54:29.248Z,18.77
2022-12-15T00:57:16.171Z,19.50
2022-12-15T01:00:01.771Z,19.53
2022-12-15T01:02:46.925Z,19.17
2022-12-15T01:05:32.586Z,18.80
2022-12-15T01:08:18.416Z,19.27
2022-12-15T01:11:03.555Z,18.53
2022-12-15T01:13:50.119Z,19.47
2022-12-15T01:16:36.093Z,19.17
2022-12-15T01:19:21.601Z,18.33
2022-12-15T01:21:50.125Z,18.30
2022-12-15T01:24:18.277Z,18.23
2022-12-15T01:26:46.353Z,17.97
2022-12-15T01:29:15.970Z,18.87
2022-12-15T01:31:44.382Z,17.60
2022-12-15T01:34:22.552Z,18.17
2022-12-15T01:36:50.388Z,17.27
2022-12-15T01:39:18.242Z,17.77
2022-12-15T01:41:45.226Z,18.40
2022-12-15T01:44:19.402Z,17.37
2022-12-15T01:46:50.527Z,17.50
2022-12-15T01:49:23.226Z,17.30
2022-12-15T01:51:56.896Z,17.83
2022-12-15T01:54:30.264Z,17.03
2022-12-15T01:57:02.034Z,17.40
2022-12-15T01:59:37.058Z,16.93
2022-12-15T02:02:05.789Z,17.93
2022-12-15T02:04:34.839Z,17.50
2022-12-15T02:07:02.967Z,17.63
2022-12-15T02:09:31.695Z,17.67
2022-12-15T02:12:03.311Z,17.23
2022-12-15T02:14:49.869Z,17.67
2022-12-15T02:17:28.482Z,17.17
2022-12-15T02:20:35.056Z,18.20
2022-12-15T02:23:50.318Z,17.07
2022-12-15T02:26:59.226Z,17.07
2022-12-15T02:29:53.913Z,16.63
2022-12-15T02:32:27.907Z,16.43
2022-12-15T02:35:03.324Z,17.67
2022-12-15T02:37:34.385Z,16.27
2022-12-15T02:40:02.962Z,16.17
2022-12-15T02:42:34.193Z,16.50
2022-12-15T02:45:06.660Z,15.67
2022-12-15T02:47:46.246Z,16.10
2022-12-15T02:50:43.029Z,16.03
2022-12-15T02:53:25.275Z,15.60
2022-12-15T02:56:05.442Z,16.13
2022-12-15T02:58:40.053Z,15.00
2022-12-15T03:01:16.181Z,15.00
2022-12-15T03:03:47.865Z,15.40
2022-12-15T03:06:17.356Z,15.43
2022-12-15T03:08:45.438Z,14.87
2022-12-15T03:11:13.532Z,15.63
2022-12-15T03:13:41.628Z,14.63
2022-12-15T03:16:09.746Z,15.63
2022-12-15T03:18:38.253Z,15.70
2022-12-15T03:21:07.687Z,16.70
2022-12-15T03:23:35.702Z,15.30
2022-12-15T03:26:03.809Z,14.17
2022-12-15T03:28:31.702Z,14.90
2022-12-15T03:30:59.878Z,14.33
2022-12-15T03:33:28.307Z,15.30
2022-12-15T03:35:56.634Z,14.70
2022-12-15T03:38:26.099Z,14.23
2022-12-15T03:40:54.102Z,14.83
2022-12-15T03:43:21.978Z,15.43
2022-12-15T03:45:50.325Z,14.77
2022-12-15T03:48:18.735Z,14.47
2022-12-15T03:50:49.022Z,15.53
2022-12-15T03:53:17.016Z,15.80
2022-12-15T03:55:46.581Z,14.37
2022-12-15T03:58:14.554Z,14.07
2022-12-15T04:00:44.984Z,14.13
2022-12-15T04:03:13.349Z,15.20
2022-12-15T04:05:41.401Z,14.50
2022-12-15T04:08:09.481Z,14.90
2022-12-15T04:10:37.413Z,14.70
2022-12-15T04:13:08.879Z,14.63
2022-12-15T04:15:38.509Z,14.30
2022-12-15T04:18:10.374Z,14.93
2022-12-15T04:20:38.970Z,15.97
2022-12-15T04:23:08.059Z,15.10
2022-12-15T04:25:54.371Z,16.03
2022-12-15T04:28:41.553Z,16.23
2022-12-15T04:31:29.004Z,14.90
2022-12-15T04:34:17.278Z,15.70
2022-12-15T04:37:05.364Z,14.70
2022-12-15T04:39:52.786Z,14.97
2022-12-15T04:42:38.336Z,14.93
2022-12-15T04:45:27.643Z,15.17
2022-12-15T04:48:12.678Z,15.67
2022-12-15T04:50:58.333Z,15.63
2022-12-15T04:53:43.786Z,15.13
2022-12-15T04:56:30.535Z,14.50
2022-12-15T04:59:15.744Z,15.43
2022-12-15T05:02:02.727Z,15.00
2022-12-15T05:04:48.598Z,14.60
2022-12-15T05:07:34.184Z,14.57
2022-12-15T05:10:19.979Z,14.50
2022-12-15T05:13:05.598Z,15.17
2022-12-15T05:15:52.211Z,14.70
2022-12-15T05:18:39.613Z,15.73
2022-12-15T05:21:25.574Z,14.53
2022-12-15T05:24:11.148Z,15.63
2022-12-15T05:26:56.913Z,15.40
2022-12-15T05:29:42.212Z,14.77
2022-12-15T05:32:11.900Z,14.67
2022-12-15T05:34:41.185Z,15.00
2022-12-15T05:37:09.287Z,15.50
2022-12-15T05:39:37.361Z,14.83
2022-12-15T05:42:05.653Z,15.17
2022-12-15T05:44:33.510Z,15.20
2022-12-15T05:47:01.637Z,15.43
2022-12-15T05:49:29.549Z,15.47
2022-12-15T05:51:58.891Z,15.10
2022-12-15T05:54:26.832Z,15.30
2022-12-15T05:56:54.618Z,15.60
2022-12-15T05:59:22.688Z,14.40
2022-12-15T06:01:50.603Z,15.20
2022-12-15T06:04:18.560Z,14.60
2022-12-15T06:06:46.493Z,13.60
2022-12-15T06:09:15.982Z,15.27
2022-12-15T06:11:46.016Z,14.30
2022-12-15T06:14:19.467Z,14.33
2022-12-15T06:16:51.179Z,14.40
2022-12-15T06:19:20.165Z,14.10
2022-12-15T06:21:47.988Z,14.80
2022-12-15T06:24:17.212Z,14.87
2022-12-15T06:26:45.098Z,13.97
2022-12-15T06:29:14.383Z,14.47
2022-12-15T06:31:43.943Z,14.37
2022-12-15T06:34:14.348Z,14.60
2022-12-15T06:36:42.369Z,15.60
2022-12-15T06:39:13.015Z,15.17
2022-12-15T06:41:43.149Z,15.80
2022-12-15T06:44:14.400Z,15.63
2022-12-15T06:46:42.895Z,16.00
2022-12-15T06:49:10.853Z,16.10
2022-12-15T06:51:39.525Z,16.13
2022-12-15T06:54:07.594Z,16.63
2022-12-15T06:56:37.078Z,16.20
2022-12-15T06:59:08.382Z,16.63
2022-12-15T07:01:36.904Z,16.33
2022-12-15T07:04:05.791Z,17.17
2022-12-15T07:06:37.576Z,17.03
2022-12-15T07:09:08.330Z,16.27
2022-12-15T07:11:36.725Z,16.40
2022-12-15T07:14:06.155Z,16.50
2022-12-15T07:16:34.685Z,15.57
2022-12-15T07:19:02.726Z,16.77
2022-12-15T07:21:31.782Z,15.63
2022-12-15T07:24:00.521Z,17.20
2022-12-15T07:26:29.178Z,15.97
2022-12-15T07:28:57.095Z,15.97
2022-12-15T07:31:26.366Z,15.80
2022-12-15T07:33:55.074Z,16.10
2022-12-15T07:36:23.162Z,17.23
2022-12-15T07:38:51.886Z,15.93
2022-12-15T07:41:21.054Z,17.53
2022-12-15T07:43:49.276Z,17.10
2022-12-15T07:46:17.403Z,16.73
2022-12-15T07:48:50.186Z,15.87
2022-12-15T07:51:21.094Z,15.80
2022-12-15T07:53:50.023Z,16.00
2022-12-15T07:56:19.168Z,15.87
2022-12-15T07:58:47.223Z,16.60
2022-12-15T08:01:16.393Z,16.27
2022-12-15T08:03:45.137Z,16.27
2022-12-15T08:06:16.340Z,16.70
2022-12-15T08:08:50.802Z,16.63
2022-12-15T08:11:20.436Z,15.60
2022-12-15T08:14:02.724Z,16.73
2022-12-15T08:16:34.634Z,16.23
2022-12-15T08:19:02.861Z,17.13
2022-12-15T08:21:32.356Z,17.53
2022-12-15T08:24:01.926Z,17.47
2022-12-15T08:26:31.044Z,17.03
2022-12-15T08:29:24.387Z,16.17
2022-12-15T08:31:50.968Z,17.53
2022-12-15T08:34:19.027Z,16.97
2022-12-15T08:36:48.369Z,16.80
2022-12-15T08:39:16.572Z,18.17
2022-12-15T08:41:44.893Z,16.27
2022-12-15T08:44:12.832Z,16.47
2022-12-15T08:46:40.984Z,16.23
2022-12-15T08:49:09.262Z,16.33
2022-12-15T08:51:37.893Z,16.50
2022-12-15T08:54:07.201Z,17.40
2022-12-15T08:56:36.749Z,16.83
2022-12-15T08:59:04.851Z,16.57
2022-12-15T09:01:33.414Z,16.77
2022-12-15T09:04:02.278Z,16.63
2022-12-15T09:06:35.285Z,16.50
2022-12-15T09:09:05.654Z,17.50
2022-12-15T09:11:35.571Z,16.07
2022-12-15T09:14:03.845Z,16.30
2022-12-15T09:16:31.992Z,15.73
2022-12-15T09:19:01.107Z,17.47
2022-12-15T09:21:32.000Z,16.57
2022-12-15T09:24:02.214Z,16.40
2022-12-15T09:26:32.488Z,16.40
2022-12-15T09:29:02.946Z,16.90
2022-12-15T09:31:33.470Z,16.10
2022-12-15T09:34:02.583Z,15.77
2022-12-15T09:36:32.615Z,16.20
2022-12-15T09:39:01.974Z,15.97
2022-12-15T09:41:32.148Z,15.40
2022-12-15T09:44:05.268Z,15.83
2022-12-15T09:46:50.240Z,14.57
2022-12-15T09:49:26.407Z,16.90
2022-12-15T09:52:01.028Z,15.30
2022-12-15T09:54:33.404Z,16.63
2022-12-15T09:57:06.361Z,16.90
2022-12-15T09:59:43.434Z,15.93
2022-12-15T10:02:30.434Z,16.20
2022-12-15T10:05:07.098Z,15.43
2022-12-15T10:07:42.272Z,16.67
2022-12-15T10:10:18.930Z,16.53
2022-12-15T10:12:59.903Z,15.57
2022-12-15T10:15:37.303Z,14.87
2022-12-15T10:18:12.835Z,14.00
2022-12-15T10:20:41.329Z,14.97
2022-12-15T10:23:15.359Z,15.57
2022-12-15T10:25:51.485Z,15.10
2022-12-15T10:28:51.348Z,15.77
2022-12-15T10:31:32.804Z,16.00
2022-12-15T10:34:23.348Z,14.93
2022-12-15T10:36:54.850Z,14.43
2022-12-15T10:39:24.175Z,14.17
2022-12-15T10:42:12.522Z,16.23
2022-12-15T10:44:42.743Z,15.40
2022-12-15T10:47:19.015Z,15.37
2022-12-15T10:49:48.988Z,13.60
2022-12-15T10:52:24.469Z,13.53
2022-12-15T10:54:56.556Z,13.90
2022-12-15T10:57:29.118Z,14.93
2022-12-15T10:59:59.952Z,14.73
2022-12-15T11:02:36.832Z,13.60
2022-12-15T11:05:11.172Z,14.17
2022-12-15T11:07:43.213Z,14.70
2022-12-15T11:10:21.313Z,14.23
2022-12-15T11:12:59.831Z,12.60
2022-12-15T11:15:40.126Z,13.63
2022-12-15T11:18:17.219Z,13.40
2022-12-15T11:20:52.012Z,14.07
2022-12-15T11:23:28.091Z,12.90
2022-12-15T11:26:06.777Z,11.83
2022-12-15T11:28:42.448Z,13.87
2022-12-15T11:31:18.716Z,10.87
2022-12-15T11:33:49.316Z,12.13
2022-12-15T11:36:25.635Z,12.13
2022-12-15T11:39:00.248Z,10.80
2022-12-15T11:41:39.638Z,10.50
2022-12-15T11:44:26.900Z,10.50
2022-12-15T11:47:07.220Z,10.33
2022-12-15T11:49:54.214Z,10.80
2022-12-15T11:52:35.896Z,10.17
2022-12-15T11:55:16.318Z,10.27
2022-12-15T11:58:02.316Z,10.00
2022-12-15T12:00:35.676Z,10.03
2022-12-15T12:03:16.186Z,12.20
2022-12-15T12:05:58.526Z,12.60
2022-12-15T12:09:04.094Z,10.63
2022-12-15T12:11:41.583Z,11.40
2022-12-15T12:14:20.781Z,13.10
2022-12-15T12:16:55.773Z,10.27
2022-12-15T12:19:28.808Z,12.70
2022-12-15T12:22:03.665Z,11.13
2022-12-15T12:24:36.704Z,12.47
2022-12-15T12:27:12.583Z,26.90
2022-12-15T12:29:48.717Z,12.70
2022-12-15T12:32:25.355Z,10.83
2022-12-15T12:35:31.676Z,11.73
2022-12-15T12:38:03.129Z,10.33
2022-12-15T12:40:42.287Z,9.60
2022-12-15T12:43:14.397Z,9.70
2022-12-15T12:45:50.807Z,9.53
2022-12-15T12:48:25.944Z,9.90
2022-12-15T12:51:10.886Z,9.40
2022-12-15T12:53:40.198Z,9.60
2022-12-15T12:56:08.371Z,10.90
2022-12-15T12:58:39.689Z,10.30
2022-12-15T13:01:21.104Z,9.87
2022-12-15T13:04:07.622Z,9.33
2022-12-15T13:06:59.582Z,9.27
2022-12-15T13:09:40.368Z,9.17
2022-12-15T13:12:53.183Z,8.87
2022-12-15T13:15:35.682Z,9.30
2022-12-15T13:18:08.356Z,8.80
2022-12-15T13:20:38.127Z,10.77
2022-12-15T13:23:41.505Z,9.67
2022-12-15T13:26:20.829Z,8.70
2022-12-15T13:28:53.432Z,8.57
2022-12-15T13:31:33.687Z,8.80
2022-12-15T13:34:15.390Z,8.83
2022-12-15T13:37:02.496Z,8.43
2022-12-15T13:39:58.925Z,8.30
2022-12-15T13:42:53.226Z,8.03
2022-12-15T13:45:42.901Z,7.90
2022-12-15T13:48:21.470Z,7.97
2022-12-15T13:50:57.216Z,8.20
2022-12-15T13:53:26.868Z,9.10
2022-12-15T13:56:01.782Z,8.90
2022-12-15T13:58:34.852Z,8.13
2022-12-15T14:01:03.864Z,8.63
2022-12-15T14:03:32.301Z,8.07
2022-12-15T14:06:01.547Z,9.13
2022-12-15T14:08:31.716Z,7.70
2022-12-15T14:11:22.235Z,9.07
2022-12-15T14:13:54.678Z,8.40
2022-12-15T14:16:24.770Z,8.43
2022-12-15T14:19:11.561Z,8.03
2022-12-15T14:21:39.832Z,8.60
2022-12-15T14:24:40.232Z,7.73
2022-12-15T14:27:09.772Z,7.90
2022-12-15T14:29:39.890Z,8.83
2022-12-15T14:32:11.034Z,8.20
2022-12-15T14:34:41.966Z,8.43
2022-12-15T14:37:14.985Z,7.83
2022-12-15T14:39:46.763Z,7.93
2022-12-15T14:42:19.055Z,8.47
2022-12-15T14:44:54.919Z,8.17
2022-12-15T14:47:29.619Z,7.90
2022-12-15T14:50:02.590Z,8.00
2022-12-15T14:52:36.199Z,7.90
2022-12-15T14:55:27.537Z,8.07
2022-12-15T14:57:58.697Z,7.33
2022-12-15T15:00:34.068Z,7.67
2022-12-15T15:05:58.268Z,8.17
2022-12-15T15:08:29.822Z,8.10
2022-12-15T15:11:02.942Z,8.40
2022-12-15T15:13:40.111Z,9.17
2022-12-15T15:16:19.174Z,7.90
2022-12-15T15:18:51.123Z,8.17
2022-12-15T15:21:22.983Z,7.97
2022-12-15T15:24:22.688Z,8.63
2022-12-15T15:26:50.771Z,7.80
2022-12-15T15:29:41.088Z,8.07
2022-12-15T15:32:17.431Z,7.43
2022-12-15T15:34:47.139Z,8.13
2022-12-15T15:37:20.119Z,8.73
2022-12-15T15:39:50.360Z,8.20
2022-12-15T15:42:18.897Z,8.40
2022-12-15T15:44:47.599Z,7.70
2022-12-15T15:47:23.315Z,7.67
2022-12-15T15:49:54.948Z,8.70
2022-12-15T15:52:23.884Z,8.50
2022-12-15T15:54:54.247Z,8.30
2022-12-15T15:57:22.618Z,8.50
2022-12-15T15:59:51.143Z,8.27
2022-12-15T16:02:20.917Z,8.50
2022-12-15T16:04:49.015Z,8.43
2022-12-15T16:07:24.094Z,8.63
2022-12-15T16:09:52.429Z,7.73
2022-12-15T16:12:27.616Z,10.30
2022-12-15T16:14:56.246Z,28.60
2022-12-15T16:17:25.797Z,11.50
2022-12-15T16:19:53.780Z,10.73
2022-12-15T16:22:23.442Z,9.20
2022-12-15T16:24:51.392Z,8.87
2022-12-15T16:27:19.266Z,9.27
2022-12-15T16:29:47.266Z,8.50
2022-12-15T16:32:15.518Z,8.73
2022-12-15T16:34:44.947Z,8.13
2022-12-15T16:37:26.303Z,8.70
2022-12-15T16:39:54.401Z,8.80
2022-12-15T16:42:23.259Z,8.87
2022-12-15T16:44:51.200Z,8.87
2022-12-15T16:47:19.243Z,8.93
2022-12-15T16:49:48.510Z,9.37
2022-12-15T16:52:20.848Z,8.93
2022-12-15T16:54:50.185Z,9.73
2022-12-15T16:57:18.455Z,9.03
2022-12-15T16:59:46.486Z,9.13
2022-12-15T17:02:27.004Z,9.40
2022-12-15T17:04:56.760Z,9.73
2022-12-15T17:07:27.890Z,10.03
2022-12-15T17:09:55.805Z,10.07
2022-12-15T17:12:23.665Z,10.47
2022-12-15T17:14:51.743Z,10.37
2022-12-15T17:17:21.012Z,10.70
2022-12-15T17:22:39.637Z,11.20
2022-12-15T17:25:11.220Z,10.93
2022-12-15T17:27:39.450Z,11.70
2022-12-15T17:30:14.375Z,10.80
2022-12-15T17:32:42.489Z,10.97
2022-12-15T17:35:11.191Z,11.27
2022-12-15T17:37:41.416Z,10.80
2022-12-15T17:40:18.098Z,11.77
2022-12-15T17:42:54.619Z,18.23
2022-12-15T17:45:24.444Z,15.53
2022-12-15T17:47:53.522Z,13.13
2022-12-15T17:50:21.386Z,16.60
2022-12-15T17:52:51.088Z,15.17
2022-12-15T17:55:22.713Z,14.63
2022-12-15T17:57:51.336Z,17.10
2022-12-15T18:00:23.150Z,14.57
2022-12-15T18:02:51.425Z,14.30
2022-12-15T18:05:20.537Z,14.07
2022-12-15T18:07:54.269Z,14.87
2022-12-15T18:10:27.043Z,20.00
2022-12-15T18:12:55.401Z,18.80
2022-12-15T18:15:25.550Z,15.97
2022-12-15T18:17:56.064Z,15.00
2022-12-15T18:20:24.772Z,13.97
2022-12-15T18:22:54.118Z,14.17
2022-12-15T18:25:26.054Z,15.23
2022-12-15T18:27:55.040Z,16.13
2022-12-15T18:30:24.812Z,16.20
2022-12-15T18:32:55.807Z,16.13
2022-12-15T18:35:29.858Z,15.50
2022-12-15T18:37:59.508Z,16.53
2022-12-15T18:40:30.789Z,16.30
2022-12-15T18:42:59.050Z,15.03
2022-12-15T18:45:28.359Z,15.13
2022-12-15T18:47:56.376Z,15.27
2022-12-15T18:50:26.897Z,18.30
2022-12-15T18:52:59.665Z,15.93
2022-12-15T18:55:31.123Z,15.50
2022-12-15T18:58:00.743Z,17.50
2022-12-15T19:00:30.563Z,17.27
2022-12-15T19:03:00.969Z,15.60
2022-12-15T19:05:32.585Z,16.57
2022-12-15T19:08:08.315Z,17.73
2022-12-15T19:10:41.285Z,17.27
2022-12-15T19:13:16.672Z,17.27
2022-12-15T19:15:45.176Z,16.93
2022-12-15T19:18:33.451Z,17.90
2022-12-15T19:21:28.945Z,16.67
2022-12-15T19:23:58.503Z,16.30
2022-12-15T19:26:26.638Z,16.40
2022-12-15T19:28:54.920Z,17.30
2022-12-15T19:31:23.029Z,16.67
2022-12-15T19:33:56.994Z,17.40
2022-12-15T19:36:25.669Z,16.90
2022-12-15T19:38:58.880Z,16.37
2022-12-15T19:41:27.651Z,16.77
2022-12-15T19:43:55.621Z,16.20
2022-12-15T19:46:24.043Z,19.27
2022-12-15T19:48:52.084Z,18.17
2022-12-15T19:51:23.151Z,17.27
2022-12-15T19:53:52.005Z,16.57
2022-12-15T19:56:23.687Z,16.83
2022-12-15T19:58:52.093Z,17.17
2022-12-15T20:01:21.286Z,17.40
2022-12-15T20:03:50.969Z,18.03
2022-12-15T20:06:21.381Z,18.70
2022-12-15T20:08:54.665Z,17.27
2022-12-15T20:11:26.647Z,17.47
2022-12-15T20:13:56.142Z,18.50
2022-12-15T20:16:24.889Z,17.57
2022-12-15T20:18:54.791Z,18.10
2022-12-15T20:21:27.521Z,17.73
2022-12-15T20:24:00.550Z,18.60
2022-12-15T20:26:33.160Z,18.43
2022-12-15T20:29:01.466Z,18.37
2022-12-15T20:31:29.536Z,18.70
2022-12-15T20:33:57.502Z,17.40
2022-12-15T20:36:30.703Z,17.30
2022-12-15T20:38:59.243Z,17.37
2022-12-15T20:41:28.911Z,17.57
2022-12-15T20:43:59.021Z,17.83
2022-12-15T20:46:30.225Z,17.33
2022-12-15T20:48:58.306Z,18.80
2022-12-15T20:51:28.057Z,18.63
2022-12-15T20:53:58.233Z,17.47
2022-12-15T20:56:27.555Z,17.60
2022-12-15T20:58:56.995Z,18.87
2022-12-15T21:01:32.003Z,18.80
2022-12-15T21:04:02.029Z,18.57
2022-12-15T21:06:31.628Z,17.77
2022-12-15T21:08:59.487Z,18.90
2022-12-15T21:11:29.758Z,18.43
2022-12-15T21:14:04.019Z,18.17
2022-12-15T21:16:35.584Z,18.43
2022-12-15T21:19:19.952Z,19.00
2022-12-15T21:21:52.244Z,18.83
2022-12-15T21:24:25.838Z,18.33
2022-12-15T21:26:54.998Z,18.07
2022-12-15T21:29:25.252Z,19.70
2022-12-15T21:31:54.775Z,18.90
2022-12-15T21:34:23.974Z,19.17
2022-12-15T21:36:55.105Z,18.87
2022-12-15T21:39:29.264Z,18.90
2022-12-15T21:41:59.219Z,18.27
2022-12-15T21:44:27.061Z,17.73
2022-12-15T21:46:56.360Z,18.63
2022-12-15T21:49:24.389Z,18.70
2022-12-15T21:51:54.878Z,17.47
2022-12-15T21:54:30.615Z,17.57
2022-12-15T21:57:00.007Z,18.27
2022-12-15T21:59:30.781Z,18.43
2022-12-15T22:02:00.935Z,18.70
2022-12-15T22:04:31.915Z,18.57
2022-12-15T22:06:59.849Z,18.33
2022-12-15T22:09:27.885Z,18.80
2022-12-15T22:11:57.614Z,19.03
2022-12-15T22:14:27.335Z,17.77
2022-12-15T22:16:55.678Z,18.27
2022-12-15T22:19:25.601Z,18.97
2022-12-15T22:21:53.630Z,18.43
2022-12-15T22:24:21.648Z,19.47
2022-12-15T22:26:50.024Z,18.27
2022-12-15T22:29:20.405Z,18.03
2022-12-15T22:31:49.512Z,19.57
2022-12-15T22:34:20.936Z,18.10
2022-12-15T22:36:50.773Z,18.70
2022-12-15T22:39:20.358Z,18.13
2022-12-15T22:41:50.430Z,18.53
2022-12-15T22:44:21.634Z,18.23
2022-12-15T22:46:50.985Z,18.67
2022-12-15T22:49:21.576Z,19.13
2022-12-15T22:51:51.411Z,19.63
2022-12-15T22:54:20.864Z,18.13
2022-12-15T22:56:51.781Z,18.57
2022-12-15T22:59:25.931Z,19.70
2022-12-15T23:01:54.156Z,18.93
2022-12-15T23:04:23.120Z,19.13
2022-12-15T23:06:52.540Z,18.63
2022-12-15T23:11:41.986Z,20.03
2022-12-15T23:14:12.206Z,18.83
2022-12-15T23:16:39.607Z,18.73
2022-12-15T23:19:09.042Z,19.23
2022-12-15T23:21:37.764Z,19.73
2022-12-15T23:24:05.894Z,19.97
2022-12-15T23:26:34.135Z,19.93
2022-12-15T23:29:03.885Z,19.27
2022-12-15T23:31:32.087Z,19.67
2022-12-15T23:34:00.400Z,20.23
2022-12-15T23:36:28.386Z,19.10
2022-12-15T23:38:57.848Z,20.73
2022-12-15T23:41:26.134Z,20.47
2022-12-15T23:43:54.208Z,22.20
2022-12-15T23:46:23.861Z,20.53
2022-12-15T23:48:51.871Z,21.67
2022-12-15T23:51:21.022Z,21.03
2022-12-15T23:53:49.434Z,20.67
2022-12-15T23:56:19.568Z,21.53
2022-12-15T23:58:49.609Z,19.90
